Time;durP1;ratioP1;P1;durP2;ratioP2;P2;SDS_P1;SDS_P2;PMS_P1;PMS_P2;Temp;Humidity;BMP_temperature;BMP_pressure;BME280_temperature;BME280_humidity;BME280_pressure;Samples;Min_cycle;Max_cycle;Signal;HPM_P1;HPM_P2
2022/03/26 00:00:28;;;;;;;;;;;10.80;69.30;;;;;;6216519;23;19931;-86
2022/03/26 00:02:54;;;;;;;;;;;10.80;70.00;;;;;;6215923;23;19908;-86
2022/03/26 00:05:20;;;;;;;;;;;10.80;69.30;;;;;;6215675;23;19908;-88
2022/03/26 00:07:46;;;;;;;;;;;10.80;69.40;;;;;;6215989;23;19916;-86
2022/03/26 00:10:11;;;;;;;;;;;10.80;69.50;;;;;;6217106;23;19911;-86
2022/03/26 00:12:40;;;;;;;;;;;10.80;69.50;;;;;;6213279;23;19944;-86
2022/03/26 00:15:07;;;;;;;;;;;10.80;69.50;;;;;;6213196;23;19908;-86
2022/03/26 00:17:38;;;;;;;;;;;10.80;69.50;;;;;;6188734;23;20279;-90
2022/03/26 00:20:12;;;;;;;;;;;10.80;69.50;;;;;;6213389;23;19935;-87
2022/03/26 00:22:40;;;;;;;;;;;10.70;69.70;;;;;;6212317;23;19987;-87
2022/03/26 00:25:06;;;;;;;;;;;10.70;69.70;;;;;;6212325;23;19912;-86
2022/03/26 00:27:32;;;;;;;;;;;10.70;69.80;;;;;;6212221;23;19911;-87
2022/03/26 00:30:02;;;;;;;;;;;10.70;69.90;;;;;;6211857;23;19904;-87
2022/03/26 00:32:33;;;;;;;;;;;10.70;69.90;;;;;;6212501;23;19904;-87
2022/03/26 00:35:08;;;;;;;;;;;10.70;69.90;;;;;;6212219;23;19904;-87
2022/03/26 00:37:40;;;;;;;;;;;10.70;69.90;;;;;;6187834;23;20311;-87
2022/03/26 00:40:09;;;;;;;;;;;10.70;69.90;;;;;;6212540;23;19912;-88
2022/03/26 00:42:35;;;;;;;;;;;10.70;70.00;;;;;;6212094;23;19908;-88
2022/03/26 00:45:01;;;;;;;;;;;10.60;70.00;;;;;;6212385;23;19951;-88
2022/03/26 00:47:27;;;;;;;;;;;10.60;70.10;;;;;;6212510;23;20230;-87
2022/03/26 00:49:55;;;;;;;;;;;10.60;70.10;;;;;;6205034;23;19923;-88
2022/03/26 00:52:21;;;;;;;;;;;10.60;70.20;;;;;;6192464;23;19908;-88
2022/03/26 00:54:49;;;;;;;;;;;10.60;70.20;;;;;;6191805;23;19904;-86
2022/03/26 00:57:18;;;;;;;;;;;10.50;70.20;;;;;;6191775;23;19911;-87
2022/03/26 00:59:46;;;;;;;;;;;10.50;70.20;;;;;;6191962;23;20310;-87
2022/03/26 01:02:11;;;;;;;;;;;10.50;70.30;;;;;;6167783;23;19978;-87
2022/03/26 01:04:38;;;;;;;;;;;10.50;70.60;;;;;;6192406;23;20234;-86
2022/03/26 01:07:09;;;;;;;;;;;10.40;70.50;;;;;;6192452;23;19980;-86
2022/03/26 01:09:40;;;;;;;;;;;10.40;71.20;;;;;;6194365;23;19904;-86
2022/03/26 01:12:06;;;;;;;;;;;10.40;70.80;;;;;;6245082;22;19904;-86
2022/03/26 01:14:34;;;;;;;;;;;10.40;70.90;;;;;;6219256;22;19976;-86
2022/03/26 01:17:00;;;;;;;;;;;10.30;70.90;;;;;;6218787;22;19915;-85
2022/03/26 01:19:25;;;;;;;;;;;10.30;70.90;;;;;;6218526;23;19904;-85
2022/03/26 01:21:54;;;;;;;;;;;10.30;71.00;;;;;;6195720;23;19915;-85
2022/03/26 01:24:22;;;;;;;;;;;10.20;71.10;;;;;;6167398;23;19919;-86
2022/03/26 01:26:47;;;;;;;;;;;10.20;71.20;;;;;;6192161;23;19939;-85
2022/03/26 01:29:13;;;;;;;;;;;10.20;71.30;;;;;;6218316;23;20288;-85
2022/03/26 01:31:46;;;;;;;;;;;10.20;71.40;;;;;;6191888;23;19946;-85
2022/03/26 01:34:14;;;;;;;;;;;10.20;71.50;;;;;;6191278;23;19951;-85
2022/03/26 01:36:40;;;;;;;;;;;10.10;71.80;;;;;;6191383;23;19904;-86
2022/03/26 01:39:09;;;;;;;;;;;10.10;71.70;;;;;;6191749;23;20042;-85
2022/03/26 01:41:34;;;;;;;;;;;10.10;71.70;;;;;;6191752;23;19908;-86
2022/03/26 01:44:00;;;;;;;;;;;10.10;71.80;;;;;;6191126;23;19962;-85
2022/03/26 01:46:26;;;;;;;;;;;10.00;71.80;;;;;;6191888;23;20266;-84
2022/03/26 01:49:00;;;;;;;;;;;10.00;72.10;;;;;;6191132;23;19904;-85
2022/03/26 01:51:44;;;;;;;;;;;10.00;72.10;;;;;;6191176;23;19919;-86
2022/03/26 01:54:10;;;;;;;;;;;10.00;72.10;;;;;;6191823;23;19986;-86
2022/03/26 01:56:54;;;;;;;;;;;9.90;72.20;;;;;;6190754;23;19914;-86
2022/03/26 01:59:20;;;;;;;;;;;9.90;72.40;;;;;;6191582;23;19904;-85
2022/03/26 02:01:53;;;;;;;;;;;9.90;72.60;;;;;;6191319;23;19908;-86
2022/03/26 02:04:19;;;;;;;;;;;9.90;72.80;;;;;;6217986;23;19908;-85
2022/03/26 02:06:47;;;;;;;;;;;9.80;72.60;;;;;;6218150;23;19911;-85
2022/03/26 02:09:14;;;;;;;;;;;9.80;72.70;;;;;;6191307;23;19904;-85
2022/03/26 02:11:46;;;;;;;;;;;9.80;72.80;;;;;;6191509;23;19904;-86
2022/03/26 02:14:12;;;;;;;;;;;9.70;72.90;;;;;;6191124;23;19951;-86
2022/03/26 02:16:41;;;;;;;;;;;9.70;72.80;;;;;;6191287;23;19908;-86
2022/03/26 02:19:09;;;;;;;;;;;9.70;72.90;;;;;;6190899;23;19904;-86
2022/03/26 02:21:37;;;;;;;;;;;9.70;73.00;;;;;;6191412;23;19904;-86
2022/03/26 02:24:06;;;;;;;;;;;9.70;73.20;;;;;;6191365;23;19908;-86
2022/03/26 02:26:32;;;;;;;;;;;9.60;73.30;;;;;;6191538;23;20061;-86
2022/03/26 02:29:07;;;;;;;;;;;9.60;73.50;;;;;;6191236;23;19910;-86
2022/03/26 02:31:42;;;;;;;;;;;9.50;73.70;;;;;;6191871;23;19958;-86
2022/03/26 02:34:10;;;;;;;;;;;9.50;74.00;;;;;;6191130;23;19911;-85
2022/03/26 02:36:45;;;;;;;;;;;;;;;;;;;;;
2022/03/26 02:39:14;;;;;;;;;;;9.30;74.60;;;;;;6217624;23;20345;-86
2022/03/26 02:41:42;;;;;;;;;;;9.30;74.70;;;;;;6190898;23;19954;-87
2022/03/26 02:44:11;;;;;;;;;;;9.20;74.90;;;;;;6193037;23;19915;-86
2022/03/26 02:46:46;;;;;;;;;;;9.20;75.10;;;;;;6199149;23;20315;-86
2022/03/26 02:49:17;;;;;;;;;;;9.10;75.20;;;;;;6217933;22;19892;-86
2022/03/26 02:51:43;;;;;;;;;;;9.10;75.40;;;;;;6183513;23;19928;-86
2022/03/26 02:54:19;;;;;;;;;;;9.00;75.50;;;;;;6182029;23;19913;-86
2022/03/26 02:56:45;;;;;;;;;;;9.00;75.70;;;;;;6165215;23;19905;-87
2022/03/26 02:59:11;;;;;;;;;;;8.90;75.90;;;;;;6185094;23;19935;-87
2022/03/26 03:01:44;;;;;;;;;;;8.80;76.10;;;;;;6159590;23;19904;-87
2022/03/26 03:04:10;;;;;;;;;;;8.70;76.20;;;;;;6159765;23;20357;-87
2022/03/26 03:06:36;;;;;;;;;;;8.70;76.30;;;;;;6159543;23;19909;-86
2022/03/26 03:09:05;;;;;;;;;;;8.70;76.40;;;;;;6159231;23;19905;-86
2022/03/26 03:11:33;;;;;;;;;;;8.60;76.50;;;;;;6159522;23;19909;-86
2022/03/26 03:13:59;;;;;;;;;;;8.50;76.70;;;;;;6159623;23;19905;-86
2022/03/26 03:16:24;;;;;;;;;;;8.50;76.80;;;;;;6159472;23;19904;-86
2022/03/26 03:19:03;;;;;;;;;;;;;;;;;;;;;
2022/03/26 03:21:29;;;;;;;;;;;8.40;77.10;;;;;;6161110;23;20008;-87
2022/03/26 03:23:57;;;;;;;;;;;8.40;77.30;;;;;;6159889;23;19951;-86
2022/03/26 03:26:25;;;;;;;;;;;8.30;77.60;;;;;;6184175;23;19983;-86
2022/03/26 03:28:51;;;;;;;;;;;8.30;77.70;;;;;;6161048;23;20011;-85
2022/03/26 03:31:16;;;;;;;;;;;8.30;77.80;;;;;;6159133;23;19905;-85
2022/03/26 03:33:42;;;;;;;;;;;8.20;77.90;;;;;;6159452;23;20283;-86
2022/03/26 03:36:10;;;;;;;;;;;8.10;77.90;;;;;;6159070;23;19909;-86
2022/03/26 03:38:36;;;;;;;;;;;8.10;78.00;;;;;;6159496;23;19913;-85
2022/03/26 03:41:12;;;;;;;;;;;8.00;78.10;;;;;;6159485;23;19991;-86
2022/03/26 03:43:40;;;;;;;;;;;8.00;78.10;;;;;;6135210;23;20327;-86
2022/03/26 03:46:06;;;;;;;;;;;7.90;78.20;;;;;;6135142;23;19924;-86
2022/03/26 03:48:34;;;;;;;;;;;7.90;78.30;;;;;;6161347;23;20236;-86
2022/03/26 03:51:00;;;;;;;;;;;7.90;78.30;;;;;;6156388;23;19927;-86
2022/03/26 03:53:28;;;;;;;;;;;7.80;78.40;;;;;;6213641;23;20247;-86
2022/03/26 03:55:53;;;;;;;;;;;7.80;78.60;;;;;;6189536;23;19959;-86
2022/03/26 03:58:19;;;;;;;;;;;7.80;78.80;;;;;;6213825;23;20270;-86
2022/03/26 04:00:45;;;;;;;;;;;7.70;79.00;;;;;;6214061;23;20376;-86
2022/03/26 04:03:10;;;;;;;;;;;7.60;79.10;;;;;;6214270;23;19915;-86
2022/03/26 04:05:36;;;;;;;;;;;7.60;79.20;;;;;;6214334;23;20319;-86
2022/03/26 04:08:04;;;;;;;;;;;7.50;79.30;;;;;;6212259;23;19959;-87
2022/03/26 04:10:32;;;;;;;;;;;7.50;79.40;;;;;;6213016;23;19904;-86
2022/03/26 04:13:05;;;;;;;;;;;7.40;79.50;;;;;;6212874;23;19904;-86
2022/03/26 04:15:48;;;;;;;;;;;7.40;79.60;;;;;;6213138;23;19935;-86
2022/03/26 04:18:16;;;;;;;;;;;7.40;79.80;;;;;;6213109;23;19904;-86
2022/03/26 04:20:41;;;;;;;;;;;7.30;79.90;;;;;;6229246;23;19908;-86
2022/03/26 04:23:08;;;;;;;;;;;7.30;80.00;;;;;;6239372;23;19944;-88
2022/03/26 04:25:33;;;;;;;;;;;7.20;80.10;;;;;;6239627;23;19893;-86
2022/03/26 04:27:59;;;;;;;;;;;7.20;80.20;;;;;;6239696;23;19899;-86
2022/03/26 04:30:24;;;;;;;;;;;7.10;80.30;;;;;;6222093;23;19904;-86
2022/03/26 04:32:53;;;;;;;;;;;7.00;80.90;;;;;;6212416;23;20323;-86
2022/03/26 04:35:23;;;;;;;;;;;7.10;80.50;;;;;;6212821;23;19948;-86
2022/03/26 04:37:51;;;;;;;;;;;7.00;80.60;;;;;;6212382;23;20285;-85
2022/03/26 04:40:17;;;;;;;;;;;7.00;80.80;;;;;;6212257;23;19904;-86
2022/03/26 04:42:44;;;;;;;;;;;6.90;80.80;;;;;;6187505;23;19943;-86
2022/03/26 04:45:10;;;;;;;;;;;6.90;80.80;;;;;;6212157;23;19908;-86
2022/03/26 04:47:36;;;;;;;;;;;6.90;80.90;;;;;;6212311;23;19943;-87
2022/03/26 04:50:02;;;;;;;;;;;6.90;81.10;;;;;;6186925;23;19952;-86
2022/03/26 04:52:27;;;;;;;;;;;6.80;81.10;;;;;;6212575;23;20252;-87
2022/03/26 04:54:53;;;;;;;;;;;6.80;81.20;;;;;;6211828;23;19904;-86
2022/03/26 04:57:21;;;;;;;;;;;6.80;81.30;;;;;;6211709;23;20208;-87
2022/03/26 04:59:49;;;;;;;;;;;6.80;81.40;;;;;;6211961;23;19909;-86
2022/03/26 05:02:14;;;;;;;;;;;6.80;81.60;;;;;;6187585;23;19991;-86
2022/03/26 05:04:43;;;;;;;;;;;6.70;81.50;;;;;;6188168;23;19939;-87
2022/03/26 05:09:53;;;;;;;;;;;6.70;81.60;;;;;;6188314;23;20318;-86
2022/03/26 05:12:24;;;;;;;;;;;6.60;81.80;;;;;;6186540;23;19908;-86
2022/03/26 05:14:50;;;;;;;;;;;6.60;81.90;;;;;;6212474;23;19935;-86
2022/03/26 05:17:15;;;;;;;;;;;6.60;82.10;;;;;;6211857;23;19913;-85
2022/03/26 05:19:47;;;;;;;;;;;6.60;82.10;;;;;;6186304;23;19908;-86
2022/03/26 05:22:15;;;;;;;;;;;6.50;82.10;;;;;;6211911;23;19908;-87
2022/03/26 05:24:43;;;;;;;;;;;6.50;82.40;;;;;;6212043;23;20331;-87
2022/03/26 05:27:11;;;;;;;;;;;6.40;82.80;;;;;;6211926;23;19905;-87
2022/03/26 05:29:46;;;;;;;;;;;6.40;83.00;;;;;;6187926;23;20279;-87
2022/03/26 05:32:15;;;;;;;;;;;6.40;83.40;;;;;;6211962;23;19911;-86
2022/03/26 05:34:44;;;;;;;;;;;6.30;83.50;;;;;;6188700;23;19911;-86
2022/03/26 05:37:10;;;;;;;;;;;6.30;83.50;;;;;;6212447;23;19904;-88
2022/03/26 05:39:38;;;;;;;;;;;6.30;83.50;;;;;;6212720;23;19908;-87
2022/03/26 05:42:11;;;;;;;;;;;6.30;83.60;;;;;;6189066;23;19908;-87
2022/03/26 05:44:36;;;;;;;;;;;6.30;83.70;;;;;;6213296;23;19913;-87
2022/03/26 05:47:05;;;;;;;;;;;6.20;83.70;;;;;;6225737;23;19899;-86
2022/03/26 05:49:33;;;;;;;;;;;6.20;83.80;;;;;;6234884;23;19908;-86
2022/03/26 05:52:06;;;;;;;;;;;6.20;83.80;;;;;;6244507;22;19908;-85
2022/03/26 05:54:34;;;;;;;;;;;6.20;83.90;;;;;;6218593;22;19916;-86
2022/03/26 05:56:59;;;;;;;;;;;6.20;84.00;;;;;;6218763;22;19892;-85
2022/03/26 05:59:26;;;;;;;;;;;6.20;84.30;;;;;;6206113;23;19946;-87
2022/03/26 06:01:59;;;;;;;;;;;6.20;84.30;;;;;;6192243;23;19904;-87
2022/03/26 06:04:28;;;;;;;;;;;6.10;84.30;;;;;;6218607;23;19908;-87
2022/03/26 06:06:59;;;;;;;;;;;6.20;84.40;;;;;;6191948;23;20229;-87
2022/03/26 06:09:24;;;;;;;;;;;6.10;84.40;;;;;;6192275;23;19904;-87
2022/03/26 06:11:50;;;;;;;;;;;6.20;84.50;;;;;;6192238;23;19904;-86
2022/03/26 06:14:18;;;;;;;;;;;6.20;84.50;;;;;;6218334;23;19908;-87
2022/03/26 06:16:47;;;;;;;;;;;6.20;84.60;;;;;;6192054;23;19919;-87
2022/03/26 06:19:17;;;;;;;;;;;6.20;84.70;;;;;;6192180;23;20230;-87
2022/03/26 06:21:43;;;;;;;;;;;6.20;84.70;;;;;;6193625;23;19947;-88
2022/03/26 06:24:09;;;;;;;;;;;6.20;84.80;;;;;;6199368;23;19931;-88
2022/03/26 06:26:39;;;;;;;;;;;6.20;84.90;;;;;;6216407;23;19951;-85
2022/03/26 06:29:07;;;;;;;;;;;6.30;85.10;;;;;;6203440;23;19904;-85
2022/03/26 06:31:32;;;;;;;;;;;6.30;85.20;;;;;;6191773;23;19904;-85
2022/03/26 06:34:03;;;;;;;;;;;6.30;85.30;;;;;;6220066;23;19986;-85
2022/03/26 06:36:36;;;;;;;;;;;6.30;85.40;;;;;;6192507;23;19954;-84
2022/03/26 06:39:02;;;;;;;;;;;6.40;85.50;;;;;;6171204;23;19958;-85
2022/03/26 06:41:30;;;;;;;;;;;6.40;85.60;;;;;;6193637;23;19982;-85
2022/03/26 06:43:56;;;;;;;;;;;6.40;85.70;;;;;;6193689;23;19923;-86
2022/03/26 06:46:21;;;;;;;;;;;6.50;85.80;;;;;;6191675;23;19908;-86
2022/03/26 06:48:52;;;;;;;;;;;6.50;85.80;;;;;;6191067;23;19987;-86
2022/03/26 06:51:20;;;;;;;;;;;6.60;85.90;;;;;;6217903;23;19916;-86
2022/03/26 06:53:48;;;;;;;;;;;6.70;86.00;;;;;;6190845;23;19908;-85
2022/03/26 06:56:16;;;;;;;;;;;6.70;85.90;;;;;;6191327;23;19908;-86
2022/03/26 06:58:43;;;;;;;;;;;6.80;85.90;;;;;;6190469;23;19926;-86
2022/03/26 07:01:08;;;;;;;;;;;6.80;85.90;;;;;;6191289;23;19908;-86
2022/03/26 07:03:37;;;;;;;;;;;6.90;85.90;;;;;;6218858;23;20287;-86
2022/03/26 07:06:13;;;;;;;;;;;;;;;;;;;;;
2022/03/26 07:08:41;;;;;;;;;;;7.10;85.80;;;;;;6217863;23;19991;-86
2022/03/26 07:11:10;;;;;;;;;;;7.10;85.70;;;;;;6224347;23;19903;-86
2022/03/26 07:13:36;;;;;;;;;;;7.20;85.60;;;;;;6192488;23;20148;-87
2022/03/26 07:16:11;;;;;;;;;;;7.30;85.60;;;;;;6197201;23;19915;-86
2022/03/26 07:18:39;;;;;;;;;;;7.40;85.50;;;;;;6199787;23;19907;-87
2022/03/26 07:21:05;;;;;;;;;;;7.50;85.40;;;;;;6213100;23;19896;-87
2022/03/26 07:23:33;;;;;;;;;;;7.60;85.20;;;;;;6217770;23;19911;-88
2022/03/26 07:26:07;;;;;;;;;;;7.70;85.00;;;;;;6217692;22;19892;-87
2022/03/26 07:28:35;;;;;;;;;;;7.70;84.80;;;;;;6215116;23;19908;-85
2022/03/26 07:31:04;;;;;;;;;;;7.80;84.60;;;;;;6167264;23;19908;-90
2022/03/26 07:33:47;;;;;;;;;;;7.90;84.30;;;;;;6192003;23;19912;-88
2022/03/26 07:36:13;;;;;;;;;;;8.00;84.20;;;;;;6191111;23;19905;-87
2022/03/26 07:38:38;;;;;;;;;;;8.10;84.00;;;;;;6191128;23;19983;-86
2022/03/26 07:41:04;;;;;;;;;;;8.20;83.70;;;;;;6217589;23;19904;-85
2022/03/26 07:43:40;;;;;;;;;;;8.30;83.50;;;;;;6192723;23;19912;-86
2022/03/26 07:46:07;;;;;;;;;;;8.40;83.30;;;;;;6168198;23;19912;-86
2022/03/26 07:48:38;;;;;;;;;;;8.60;83.20;;;;;;6219354;23;19927;-86
2022/03/26 07:51:03;;;;;;;;;;;8.80;82.90;;;;;;6167974;23;19920;-86
2022/03/26 07:53:29;;;;;;;;;;;8.90;82.60;;;;;;6192181;23;19939;-86
2022/03/26 07:55:55;;;;;;;;;;;9.00;82.40;;;;;;6193258;23;19983;-86
2022/03/26 07:58:21;;;;;;;;;;;9.20;82.20;;;;;;6193274;23;19904;-86
2022/03/26 08:00:46;;;;;;;;;;;9.30;82.00;;;;;;6194218;23;19908;-85
2022/03/26 08:03:14;;;;;;;;;;;9.40;81.80;;;;;;6170212;23;19916;-86
2022/03/26 08:05:40;;;;;;;;;;;9.50;81.80;;;;;;6196551;23;19907;-87
2022/03/26 08:08:06;;;;;;;;;;;9.70;81.70;;;;;;6194325;23;19930;-84
2022/03/26 08:10:34;;;;;;;;;;;9.90;81.40;;;;;;6195267;23;19934;-86
2022/03/26 08:13:02;;;;;;;;;;;10.00;81.10;;;;;;6195947;23;20265;-85
2022/03/26 08:15:28;;;;;;;;;;;10.10;80.90;;;;;;6195060;23;19904;-85
2022/03/26 08:17:53;;;;;;;;;;;10.20;80.70;;;;;;6194690;23;19966;-87
2022/03/26 08:20:19;;;;;;;;;;;10.30;80.20;;;;;;6192853;23;19911;-85
2022/03/26 08:22:45;;;;;;;;;;;10.40;79.80;;;;;;6192244;23;19908;-85
2022/03/26 08:25:10;;;;;;;;;;;10.50;79.70;;;;;;6192954;23;19908;-86
2022/03/26 08:27:37;;;;;;;;;;;10.50;79.60;;;;;;6192260;23;19915;-85
2022/03/26 08:30:03;;;;;;;;;;;10.70;79.50;;;;;;6192072;23;20393;-85
2022/03/26 08:32:29;;;;;;;;;;;10.80;79.20;;;;;;6191982;23;19904;-85
2022/03/26 08:34:54;;;;;;;;;;;10.90;78.40;;;;;;6192030;23;20337;-83
2022/03/26 08:37:20;;;;;;;;;;;11.00;77.70;;;;;;6191547;23;20236;-85
2022/03/26 08:39:45;;;;;;;;;;;11.20;77.20;;;;;;6166504;23;19918;-83
2022/03/26 08:42:13;;;;;;;;;;;11.20;77.20;;;;;;6191625;23;20314;-83
2022/03/26 08:44:39;;;;;;;;;;;11.30;77.40;;;;;;6166907;23;20318;-83
2022/03/26 08:47:08;;;;;;;;;;;11.40;77.10;;;;;;6191381;23;19911;-84
2022/03/26 08:49:34;;;;;;;;;;;11.50;76.70;;;;;;6218087;23;20235;-84
2022/03/26 08:52:00;;;;;;;;;;;11.60;76.20;;;;;;6167560;23;19928;-84
2022/03/26 08:54:26;;;;;;;;;;;11.70;76.00;;;;;;6192489;23;20385;-84
2022/03/26 08:56:51;;;;;;;;;;;11.80;75.80;;;;;;6208327;22;19908;-82
2022/03/26 08:59:17;;;;;;;;;;;11.90;75.70;;;;;;6217148;23;19908;-83
2022/03/26 09:01:43;;;;;;;;;;;12.10;75.60;;;;;;6218850;22;19922;-84
2022/03/26 09:04:11;;;;;;;;;;;12.20;75.00;;;;;;6194037;23;19952;-82
2022/03/26 09:06:37;;;;;;;;;;;12.20;75.00;;;;;;6208140;23;19920;-85
2022/03/26 09:09:04;;;;;;;;;;;12.30;75.00;;;;;;6192291;23;19908;-83
2022/03/26 09:11:31;;;;;;;;;;;12.30;74.80;;;;;;6192798;23;19912;-84
2022/03/26 09:13:59;;;;;;;;;;;12.50;75.00;;;;;;6191498;23;19911;-84
2022/03/26 09:16:26;;;;;;;;;;;12.50;74.70;;;;;;6167083;23;19924;-84
2022/03/26 09:18:52;;;;;;;;;;;12.60;74.80;;;;;;6191284;23;19911;-84
2022/03/26 09:21:18;;;;;;;;;;;12.70;75.00;;;;;;6166567;23;20222;-83
2022/03/26 09:23:46;;;;;;;;;;;12.80;74.90;;;;;;6191212;23;19915;-84
2022/03/26 09:26:12;;;;;;;;;;;12.90;74.50;;;;;;6191283;23;19908;-85
2022/03/26 09:28:45;;;;;;;;;;;13.00;74.30;;;;;;6191324;23;19904;-86
2022/03/26 09:31:11;;;;;;;;;;;13.00;74.20;;;;;;6192288;23;19946;-83
2022/03/26 09:33:36;;;;;;;;;;;13.10;73.90;;;;;;6190800;23;19908;-84
2022/03/26 09:36:02;;;;;;;;;;;13.30;73.90;;;;;;6166363;23;19948;-83
2022/03/26 09:38:28;;;;;;;;;;;13.40;73.60;;;;;;6191349;23;19904;-83
2022/03/26 09:40:53;;;;;;;;;;;13.40;73.40;;;;;;6191443;23;19990;-83
2022/03/26 09:43:19;;;;;;;;;;;13.50;73.40;;;;;;6191323;23;19946;-83
2022/03/26 09:45:44;;;;;;;;;;;13.60;73.30;;;;;;6191150;23;19962;-83
2022/03/26 09:48:10;;;;;;;;;;;13.60;73.00;;;;;;6190453;23;20346;-83
2022/03/26 09:50:39;;;;;;;;;;;13.70;72.90;;;;;;6161506;23;19978;-84
2022/03/26 09:53:05;;;;;;;;;;;13.80;72.90;;;;;;6211586;23;20227;-83
2022/03/26 09:55:32;;;;;;;;;;;13.80;73.00;;;;;;6212245;23;19984;-84
2022/03/26 09:57:58;;;;;;;;;;;13.90;72.80;;;;;;6212001;23;19911;-84
2022/03/26 10:00:23;;;;;;;;;;;14.00;72.50;;;;;;6212362;23;20297;-83
2022/03/26 10:02:50;;;;;;;;;;;14.00;72.20;;;;;;6211732;23;19936;-84
2022/03/26 10:05:39;;;;;;;;;;;14.10;72.40;;;;;;6213553;23;20277;-89
2022/03/26 10:08:19;;;;;;;;;;;14.10;72.30;;;;;;6212894;23;19904;-85
2022/03/26 10:10:45;;;;;;;;;;;14.20;72.20;;;;;;6212252;23;19980;-85
2022/03/26 10:13:33;;;;;;;;;;;14.30;71.80;;;;;;6211603;23;19908;-84
2022/03/26 10:16:00;;;;;;;;;;;14.40;71.70;;;;;;6197556;23;20234;-83
2022/03/26 10:18:25;;;;;;;;;;;14.50;71.60;;;;;;6211965;23;19926;-83
2022/03/26 10:20:58;;;;;;;;;;;14.50;70.90;;;;;;6211828;23;19945;-83
2022/03/26 10:23:28;;;;;;;;;;;14.60;70.70;;;;;;6212178;23;19909;-83
2022/03/26 10:26:03;;;;;;;;;;;14.70;70.70;;;;;;6211816;23;19908;-83
2022/03/26 10:28:30;;;;;;;;;;;14.70;70.90;;;;;;6212113;23;20329;-83
2022/03/26 10:34:00;;;;;;;;;;;14.80;71.00;;;;;;6188658;23;19911;-83
2022/03/26 10:36:26;;;;;;;;;;;14.80;70.90;;;;;;6212181;23;19988;-83
2022/03/26 10:38:51;;;;;;;;;;;14.90;70.70;;;;;;6211850;23;20312;-84
2022/03/26 10:41:20;;;;;;;;;;;15.00;70.70;;;;;;6202765;23;19951;-83
2022/03/26 10:43:45;;;;;;;;;;;15.10;70.50;;;;;;6235836;23;19916;-83
2022/03/26 10:46:11;;;;;;;;;;;15.10;70.40;;;;;;6237248;23;19899;-83
2022/03/26 10:48:37;;;;;;;;;;;15.20;70.50;;;;;;6237852;23;19916;-86
2022/03/26 10:51:06;;;;;;;;;;;15.20;70.50;;;;;;6235685;23;19908;-84
2022/03/26 10:53:33;;;;;;;;;;;15.30;70.60;;;;;;6212572;23;19916;-85
2022/03/26 10:55:59;;;;;;;;;;;15.30;70.50;;;;;;6212629;23;19934;-85
2022/03/26 10:58:25;;;;;;;;;;;15.40;70.00;;;;;;6211216;23;19904;-86
2022/03/26 11:00:53;;;;;;;;;;;15.40;69.90;;;;;;6210861;23;19991;-85
2022/03/26 11:03:19;;;;;;;;;;;15.50;69.70;;;;;;6210770;23;19915;-84
2022/03/26 11:05:46;;;;;;;;;;;15.50;69.60;;;;;;6214763;23;19908;-83
2022/03/26 11:08:13;;;;;;;;;;;15.60;69.30;;;;;;6213728;23;20394;-85
2022/03/26 11:10:41;;;;;;;;;;;15.60;69.40;;;;;;6211946;23;19904;-86
2022/03/26 11:13:08;;;;;;;;;;;15.70;69.60;;;;;;6211410;23;19991;-85
2022/03/26 11:15:39;;;;;;;;;;;15.70;69.50;;;;;;6212431;23;20208;-85
2022/03/26 11:18:23;;;;;;;;;;;15.80;68.70;;;;;;6214287;23;19966;-85
2022/03/26 11:21:07;;;;;;;;;;;15.80;67.90;;;;;;6213797;23;19912;-84
2022/03/26 11:23:52;;;;;;;;;;;15.90;67.60;;;;;;6213573;23;19908;-84
2022/03/26 11:26:36;;;;;;;;;;;16.00;67.90;;;;;;6214188;23;19909;-84
2022/03/26 11:29:14;;;;;;;;;;;16.00;68.00;;;;;;6213464;23;19904;-83
2022/03/26 11:32:18;;;;;;;;;;;16.00;68.20;;;;;;6213755;23;19904;-83
2022/03/26 11:34:51;;;;;;;;;;;16.10;66.50;;;;;;6128261;23;19905;-86
2022/03/26 11:37:42;;;;;;;;;;;16.10;65.30;;;;;;6102858;23;19987;-85
2022/03/26 11:40:14;;;;;;;;;;;16.20;65.30;;;;;;6168392;23;19984;-84
2022/03/26 11:42:40;;;;;;;;;;;16.20;65.90;;;;;;6188371;23;20315;-83
2022/03/26 11:51:16;;;;;;;;;;;16.40;65.00;;;;;;6194940;23;19927;-84
2022/03/26 11:53:44;;;;;;;;;;;16.40;64.90;;;;;;6192266;23;19995;-84
2022/03/26 11:56:20;;;;;;;;;;;16.50;63.10;;;;;;6191982;23;19907;-84
2022/03/26 11:58:52;;;;;;;;;;;16.50;62.20;;;;;;6191460;23;19931;-84
2022/03/26 12:01:18;;;;;;;;;;;16.50;62.70;;;;;;6191910;23;19904;-83
2022/03/26 12:03:48;;;;;;;;;;;16.60;62.80;;;;;;6192199;23;19923;-83
2022/03/26 12:06:37;;;;;;;;;;;16.60;62.50;;;;;;6192317;23;19916;-83
2022/03/26 12:09:03;;;;;;;;;;;16.70;62.60;;;;;;6192274;23;19911;-83
2022/03/26 12:11:33;;;;;;;;;;;16.80;62.80;;;;;;6167364;23;19908;-83
2022/03/26 12:14:06;;;;;;;;;;;16.80;62.30;;;;;;6192384;23;19936;-84
2022/03/26 12:19:56;;;;;;;;;;;16.90;60.50;;;;;;6219448;23;19904;-84
2022/03/26 12:22:31;;;;;;;;;;;16.90;60.20;;;;;;6193651;23;19914;-84
2022/03/26 12:25:09;;;;;;;;;;;16.90;59.70;;;;;;6194058;23;19912;-87
2022/03/26 12:27:53;;;;;;;;;;;16.90;59.40;;;;;;6192296;23;19904;-85
2022/03/26 12:30:19;;;;;;;;;;;17.00;59.60;;;;;;6212332;23;19895;-85
2022/03/26 12:32:44;;;;;;;;;;;17.10;59.50;;;;;;6213849;22;19888;-84
2022/03/26 12:35:10;;;;;;;;;;;17.10;59.20;;;;;;6218657;23;19915;-84
2022/03/26 12:37:36;;;;;;;;;;;17.20;59.30;;;;;;6206591;23;19904;-85
2022/03/26 12:40:07;;;;;;;;;;;17.20;59.20;;;;;;6195469;23;19911;-84
2022/03/26 12:42:33;;;;;;;;;;;17.30;58.10;;;;;;6195201;23;19940;-85
2022/03/26 12:44:58;;;;;;;;;;;17.30;58.40;;;;;;6191480;23;19915;-87
2022/03/26 12:47:35;;;;;;;;;;;17.40;58.50;;;;;;6191266;23;19910;-86
2022/03/26 12:50:23;;;;;;;;;;;17.40;58.40;;;;;;6192087;23;19904;-87
2022/03/26 12:52:58;;;;;;;;;;;17.50;57.60;;;;;;6172908;23;19920;-87
2022/03/26 12:55:26;;;;;;;;;;;17.60;57.40;;;;;;6192468;23;19904;-87
2022/03/26 13:00:39;;;;;;;;;;;17.60;57.70;;;;;;6223022;23;20003;-87
2022/03/26 13:03:16;;;;;;;;;;;;;;;;;;;;;
2022/03/26 13:05:47;;;;;;;;;;;17.70;56.70;;;;;;6223729;23;19943;-87
2022/03/26 13:08:33;;;;;;;;;;;17.80;56.70;;;;;;6173145;23;19908;-86
2022/03/26 13:13:53;;;;;;;;;;;17.80;56.00;;;;;;6181580;23;20223;-88
2022/03/26 13:16:24;;;;;;;;;;;17.90;56.00;;;;;;6198089;23;19904;-86
2022/03/26 13:19:12;;;;;;;;;;;17.90;55.40;;;;;;6200167;23;19911;-85
2022/03/26 13:21:42;;;;;;;;;;;17.90;54.70;;;;;;6198474;23;19958;-89
2022/03/26 13:24:11;;;;;;;;;;;17.90;55.30;;;;;;6197863;23;19939;-89
2022/03/26 13:26:45;;;;;;;;;;;17.90;54.30;;;;;;6222994;23;19922;-89
2022/03/26 13:29:24;;;;;;;;;;;;;;;;;;;;;
2022/03/26 13:32:27;;;;;;;;;;;17.90;54.60;;;;;;6225222;23;19924;-88
2022/03/26 13:34:58;;;;;;;;;;;17.90;54.10;;;;;;6192830;23;20295;-89
2022/03/26 13:37:57;;;;;;;;;;;17.90;54.00;;;;;;6198397;23;19927;-88
2022/03/26 13:40:33;;;;;;;;;;;18.00;54.10;;;;;;6224440;23;19904;-89
2022/03/26 13:43:12;;;;;;;;;;;18.00;54.40;;;;;;6199418;23;19915;-87
2022/03/26 13:45:46;;;;;;;;;;;18.10;54.90;;;;;;6198412;23;19962;-88
2022/03/26 13:51:40;;;;;;;;;;;;;;;;;;;;;
2022/03/26 13:54:20;;;;;;;;;;;18.10;54.30;;;;;;6224684;23;19934;-89
2022/03/26 13:57:10;;;;;;;;;;;;;;;;;;;;;
2022/03/26 13:59:44;;;;;;;;;;;18.20;54.40;;;;;;6224751;23;20401;-89
2022/03/26 14:02:32;;;;;;;;;;;18.20;54.60;;;;;;6198811;23;19908;-88
2022/03/26 14:05:09;;;;;;;;;;;18.20;55.00;;;;;;6198513;23;19915;-89
2022/03/26 14:07:40;;;;;;;;;;;18.30;54.50;;;;;;6200785;23;19928;-89
2022/03/26 14:10:08;;;;;;;;;;;18.30;54.40;;;;;;6198093;23;19904;-90
2022/03/26 14:12:38;;;;;;;;;;;18.30;54.00;;;;;;6224375;23;20266;-89
2022/03/26 14:15:07;;;;;;;;;;;18.30;53.90;;;;;;6198297;23;19911;-89
2022/03/26 14:17:35;;;;;;;;;;;18.30;53.90;;;;;;6222774;23;20365;-89
2022/03/26 14:20:14;;;;;;;;;;;;;;;;;;;;;
2022/03/26 14:22:45;;;;;;;;;;;18.30;54.70;;;;;;6199363;23;19935;-89
2022/03/26 14:25:11;;;;;;;;;;;18.30;54.60;;;;;;6243349;23;19896;-91
2022/03/26 14:30:49;;;;;;;;;;;18.30;55.00;;;;;;6244324;22;19896;-88
2022/03/26 14:33:29;;;;;;;;;;;18.40;54.90;;;;;;6183906;23;20234;-89
2022/03/26 14:35:55;;;;;;;;;;;18.40;55.00;;;;;;6181257;23;19908;-89
2022/03/26 14:38:25;;;;;;;;;;;18.40;54.70;;;;;;6199015;23;19935;-86
2022/03/26 14:40:50;;;;;;;;;;;18.40;54.30;;;;;;6174934;23;19914;-90
2022/03/26 14:43:28;;;;;;;;;;;18.40;54.20;;;;;;6196985;23;19932;-89
2022/03/26 14:45:57;;;;;;;;;;;18.40;54.40;;;;;;6198583;23;19954;-88
2022/03/26 14:52:03;;;;;;;;;;;18.40;53.70;;;;;;6224882;23;19920;-89
2022/03/26 14:55:24;;;;;;;;;;;;;;;;;;;;;
2022/03/26 14:57:28;;;;;;;;;;;18.40;53.80;;;;;;6210625;23;19904;-89
2022/03/26 15:00:02;;;;;;;;;;;18.30;53.60;;;;;;6197980;23;19904;-89
2022/03/26 15:05:58;;;;;;;;;;;18.30;54.40;;;;;;6201846;23;19908;-90
2022/03/26 15:08:42;;;;;;;;;;;;;;;;;;;;;
2022/03/26 15:11:26;;;;;;;;;;;18.30;54.70;;;;;;6200273;23;19954;-89
2022/03/26 15:14:15;;;;;;;;;;;18.30;54.80;;;;;;6222007;23;19910;-90
2022/03/26 15:17:07;;;;;;;;;;;;;;;;;;;;;
2022/03/26 15:20:08;;;;;;;;;;;18.30;54.90;;;;;;6202500;23;19908;-89
2022/03/26 15:28:57;;;;;;;;;;;;;;;;;;;;;